Terminal Aerodrome Forecast
Issued by NWS

Home | Current Version | Previous Version | Text Only | Print | Product List | Glossary On
Versions: 1 2 3 4 5 6 7 8 9 10 11 12 13 14 15 16 17 18 19 20 21 22 23 24
000
FTUS43 KBIS 212300
TAFMOT
TAF
KMOT 212334Z 2200/2224 08007KT P6SM OVC100
     FM220200 11004KT 6SM BR BKN004 OVC010
     FM220800 08008KT 4SM -SN BR SCT005 OVC011
     FM221200 35010KT 2SM -SN BR OVC005=

USA.gov is the U.S. government's official web portal to all federal, state and local government web resources and services.